createdAt,value
2017-06-18T00:01:55.581Z,84.40
2017-06-18T00:04:23.058Z,84.20
2017-06-18T00:06:50.513Z,84.40
2017-06-18T00:09:17.985Z,84.50
2017-06-18T00:11:45.437Z,85.00
2017-06-18T00:14:12.905Z,85.10
2017-06-18T00:16:40.369Z,85.40
2017-06-18T00:19:07.842Z,84.90
2017-06-18T00:21:35.302Z,85.90
2017-06-18T00:24:02.770Z,85.50
2017-06-18T00:26:30.221Z,86.00
2017-06-18T00:28:57.709Z,86.10
2017-06-18T00:31:25.169Z,86.00
2017-06-18T00:33:52.626Z,86.00
2017-06-18T00:36:20.097Z,86.20
2017-06-18T00:38:47.553Z,86.30
2017-06-18T00:41:15.025Z,86.50
2017-06-18T00:43:42.489Z,87.10
2017-06-18T00:46:09.962Z,87.50
2017-06-18T00:48:38.189Z,86.80
2017-06-18T00:51:05.657Z,87.00
2017-06-18T00:53:33.125Z,85.50
2017-06-18T00:56:00.597Z,86.00
2017-06-18T00:58:28.054Z,85.60
2017-06-18T01:00:55.531Z,86.80
2017-06-18T01:03:22.985Z,86.40
2017-06-18T01:05:51.211Z,87.50
2017-06-18T01:08:18.677Z,87.50
2017-06-18T01:10:46.133Z,87.60
2017-06-18T01:13:13.605Z,87.20
2017-06-18T01:15:41.068Z,86.20
2017-06-18T01:18:08.542Z,86.30
2017-06-18T01:20:35.997Z,86.10
2017-06-18T01:23:03.461Z,86.00
2017-06-18T01:25:30.918Z,86.30
2017-06-18T01:27:58.382Z,86.70
2017-06-18T01:30:26.605Z,86.70
2017-06-18T01:32:54.073Z,86.50
2017-06-18T01:35:21.529Z,86.50
2017-06-18T01:37:49.013Z,86.40
2017-06-18T01:40:16.465Z,86.50
2017-06-18T01:42:43.929Z,86.10
2017-06-18T01:45:11.393Z,86.10
2017-06-18T01:47:38.850Z,86.20
2017-06-18T01:50:06.327Z,86.30
2017-06-18T01:52:33.786Z,86.00
2017-06-18T01:55:01.265Z,86.80
2017-06-18T01:57:28.727Z,87.10
2017-06-18T01:59:56.199Z,86.80
2017-06-18T02:02:23.661Z,87.00
2017-06-18T02:04:51.129Z,86.80
2017-06-18T02:07:18.589Z,86.80
2017-06-18T02:09:46.106Z,87.10
2017-06-18T02:12:13.553Z,86.80
2017-06-18T02:14:41.010Z,86.80
2017-06-18T02:17:08.477Z,86.60
2017-06-18T02:19:35.934Z,86.50
2017-06-18T02:22:03.406Z,86.50
2017-06-18T02:24:30.853Z,86.70
2017-06-18T02:26:58.329Z,86.50
2017-06-18T02:29:25.785Z,86.30
2017-06-18T02:31:53.257Z,85.80
2017-06-18T02:34:20.720Z,85.90
2017-06-18T02:36:48.192Z,86.30
2017-06-18T02:39:15.650Z,87.00
2017-06-18T02:41:43.908Z,87.00
2017-06-18T02:44:11.368Z,86.40
2017-06-18T02:46:38.825Z,86.80
2017-06-18T02:49:06.294Z,87.30
2017-06-18T02:51:33.758Z,86.70
2017-06-18T02:54:01.986Z,87.10
2017-06-18T02:56:29.441Z,86.90
2017-06-18T02:58:56.913Z,87.10
2017-06-18T03:01:24.380Z,87.70
2017-06-18T03:03:51.851Z,87.70
2017-06-18T03:06:19.305Z,88.20
2017-06-18T03:08:46.779Z,89.00
2017-06-18T03:11:15.006Z,90.00
2017-06-18T03:13:42.490Z,89.90
2017-06-18T03:16:09.954Z,90.10
2017-06-18T03:18:38.182Z,90.40
2017-06-18T03:21:11.395Z,90.10
2017-06-18T03:23:44.465Z,90.10
2017-06-18T03:26:11.941Z,90.30
2017-06-18T03:28:39.397Z,90.80
2017-06-18T03:31:06.869Z,91.30
2017-06-18T03:33:34.328Z,91.60
2017-06-18T03:36:01.801Z,91.90
2017-06-18T03:38:29.264Z,92.50
2017-06-18T03:40:56.735Z,93.00
2017-06-18T03:43:24.189Z,93.30
2017-06-18T03:45:51.666Z,93.20
2017-06-18T03:48:19.122Z,92.80
2017-06-18T03:50:46.629Z,92.60
2017-06-18T03:53:14.081Z,92.10
2017-06-18T03:55:41.542Z,92.60
2017-06-18T03:58:09.009Z,92.70
2017-06-18T04:00:37.232Z,92.80
2017-06-18T04:03:04.701Z,92.80
2017-06-18T04:05:32.158Z,92.70
2017-06-18T04:07:59.629Z,92.80
2017-06-18T04:10:27.085Z,92.30
2017-06-18T04:12:54.546Z,92.50
2017-06-18T04:15:22.005Z,92.00
2017-06-18T04:17:49.477Z,91.40
2017-06-18T04:20:16.934Z,91.30
2017-06-18T04:22:44.406Z,91.40
2017-06-18T04:25:11.869Z,91.60
2017-06-18T04:27:39.345Z,91.40
2017-06-18T04:30:06.797Z,91.00
2017-06-18T04:32:34.284Z,90.80
2017-06-18T04:35:01.734Z,90.60
2017-06-18T04:37:29.194Z,90.80
2017-06-18T04:39:56.657Z,90.70
2017-06-18T04:42:24.113Z,90.50
2017-06-18T04:44:51.584Z,90.20
2017-06-18T04:47:19.041Z,90.20
2017-06-18T04:49:46.516Z,90.30
2017-06-18T04:52:13.977Z,90.60
2017-06-18T04:54:41.450Z,90.80
2017-06-18T04:57:09.674Z,91.60
2017-06-18T04:59:37.166Z,91.60
2017-06-18T05:02:04.613Z,91.10
2017-06-18T05:04:32.069Z,91.00
2017-06-18T05:06:59.541Z,90.90
2017-06-18T05:09:27.005Z,90.90
2017-06-18T05:11:55.257Z,90.90
2017-06-18T05:14:22.713Z,90.60
2017-06-18T05:16:50.189Z,90.30
2017-06-18T05:19:17.638Z,90.20
2017-06-18T05:21:45.113Z,90.50
2017-06-18T05:24:12.571Z,90.80
2017-06-18T05:26:40.043Z,90.40
2017-06-18T05:29:07.502Z,90.40
2017-06-18T05:31:34.953Z,89.70
2017-06-18T05:34:02.421Z,88.20
2017-06-18T05:36:29.881Z,87.60
2017-06-18T05:38:57.348Z,87.80
2017-06-18T05:41:24.814Z,87.20
2017-06-18T05:43:52.285Z,87.60
2017-06-18T05:46:19.745Z,88.00
2017-06-18T05:48:47.217Z,89.00
2017-06-18T05:51:14.677Z,90.00
2017-06-18T05:53:42.151Z,89.70
2017-06-18T05:56:09.614Z,88.90
2017-06-18T05:58:37.853Z,89.10
2017-06-18T06:01:05.318Z,89.10
2017-06-18T06:03:32.785Z,88.70
2017-06-18T06:06:00.250Z,88.00
2017-06-18T06:08:27.713Z,87.80
2017-06-18T06:10:55.179Z,88.10
2017-06-18T06:13:23.405Z,87.30
2017-06-18T06:15:50.866Z,87.20
2017-06-18T06:18:18.334Z,87.10
2017-06-18T06:20:45.798Z,87.30
2017-06-18T06:23:13.259Z,86.30
2017-06-18T06:25:40.725Z,85.80
2017-06-18T06:28:08.177Z,85.40
2017-06-18T06:30:35.645Z,85.10
2017-06-18T06:33:03.874Z,82.90
2017-06-18T06:35:31.346Z,82.70
2017-06-18T06:37:58.797Z,83.40
2017-06-18T06:40:26.262Z,82.20
2017-06-18T06:42:53.714Z,82.70
2017-06-18T06:45:21.189Z,82.20
2017-06-18T06:47:48.651Z,81.60
2017-06-18T06:50:16.121Z,80.60
2017-06-18T06:52:44.342Z,80.70
2017-06-18T06:55:11.822Z,80.80
2017-06-18T06:57:39.277Z,80.90
2017-06-18T07:00:06.749Z,80.60
2017-06-18T07:02:34.215Z,80.10
2017-06-18T07:05:01.686Z,79.80
2017-06-18T07:07:29.145Z,80.10
2017-06-18T07:09:57.374Z,80.70
2017-06-18T07:12:24.850Z,80.60
2017-06-18T07:14:52.305Z,79.40
2017-06-18T07:17:19.776Z,78.40
2017-06-18T07:19:47.237Z,78.10
2017-06-18T07:22:14.710Z,77.50
2017-06-18T07:24:42.157Z,79.20
2017-06-18T07:27:10.406Z,78.10
2017-06-18T07:29:37.866Z,78.10
2017-06-18T07:32:05.353Z,78.50
2017-06-18T07:34:33.573Z,75.70
2017-06-18T07:37:01.029Z,75.60
2017-06-18T07:39:28.501Z,75.70
2017-06-18T07:41:55.961Z,73.50
2017-06-18T07:44:23.435Z,74.00
2017-06-18T07:46:50.890Z,72.10
2017-06-18T07:49:18.366Z,72.00
2017-06-18T07:51:45.813Z,72.00
2017-06-18T07:54:14.062Z,71.70
2017-06-18T07:56:41.522Z,72.10
2017-06-18T07:59:08.985Z,71.70
2017-06-18T08:01:36.448Z,73.10
2017-06-18T08:04:03.922Z,73.40
2017-06-18T08:06:31.363Z,71.50
2017-06-18T08:08:58.813Z,70.60
2017-06-18T08:11:26.270Z,69.40
2017-06-18T08:13:53.718Z,70.10
2017-06-18T08:16:21.189Z,69.50
2017-06-18T08:18:48.656Z,68.50
2017-06-18T08:21:16.128Z,64.60
2017-06-18T08:23:44.345Z,63.10
2017-06-18T08:26:11.810Z,63.10
2017-06-18T08:28:39.276Z,60.70
2017-06-18T08:31:06.747Z,59.90
2017-06-18T08:33:34.194Z,60.30
2017-06-18T08:36:01.673Z,59.50
2017-06-18T08:38:29.121Z,58.90
2017-06-18T08:40:56.569Z,57.50
2017-06-18T08:43:24.037Z,57.70
2017-06-18T08:45:51.485Z,57.00
2017-06-18T08:48:18.952Z,54.50
2017-06-18T08:50:46.404Z,50.40
2017-06-18T08:53:13.861Z,51.20
2017-06-18T08:55:41.309Z,48.60
2017-06-18T08:58:08.777Z,48.90
2017-06-18T09:00:36.225Z,48.90
2017-06-18T09:03:03.693Z,49.10
2017-06-18T09:05:31.158Z,48.60
2017-06-18T09:07:58.634Z,49.60
2017-06-18T09:10:26.845Z,51.10
2017-06-18T09:12:54.334Z,51.00
2017-06-18T09:15:21.785Z,52.80
2017-06-18T09:17:49.245Z,53.50
2017-06-18T09:20:16.698Z,52.80
2017-06-18T09:22:44.145Z,51.30
2017-06-18T09:25:11.606Z,51.70
2017-06-18T09:27:39.057Z,53.80
2017-06-18T09:30:06.522Z,52.10
2017-06-18T09:32:33.984Z,50.70
2017-06-18T09:35:01.457Z,52.60
2017-06-18T09:37:28.898Z,49.40
2017-06-18T09:39:56.358Z,47.80
2017-06-18T09:42:23.806Z,46.60
2017-06-18T09:44:51.277Z,46.20
2017-06-18T09:47:18.741Z,46.70
2017-06-18T09:49:46.197Z,48.70
2017-06-18T09:52:13.661Z,50.80
2017-06-18T09:54:41.118Z,51.60
2017-06-18T09:57:08.574Z,53.00
2017-06-18T09:59:36.795Z,53.00
2017-06-18T10:02:04.263Z,52.40
2017-06-18T10:04:31.713Z,52.50
2017-06-18T10:06:59.173Z,52.80
2017-06-18T10:09:26.617Z,52.30
2017-06-18T10:11:54.093Z,50.40
2017-06-18T10:14:21.551Z,50.40
2017-06-18T10:16:49.022Z,49.80
2017-06-18T10:19:16.487Z,49.60
2017-06-18T10:21:49.691Z,50.80
2017-06-18T10:24:17.156Z,52.90
2017-06-18T10:26:44.597Z,53.50
2017-06-18T10:29:12.062Z,54.30
2017-06-18T10:31:39.505Z,53.00
2017-06-18T10:34:06.969Z,51.80
2017-06-18T10:36:34.421Z,52.60
2017-06-18T10:39:01.889Z,52.90
2017-06-18T10:41:29.329Z,52.50
2017-06-18T10:43:56.793Z,52.80
2017-06-18T10:46:24.243Z,54.80
2017-06-18T10:48:51.705Z,53.40
2017-06-18T10:51:19.153Z,53.00
2017-06-18T10:53:46.622Z,51.10
2017-06-18T10:56:14.070Z,51.00
2017-06-18T10:58:41.518Z,50.10
2017-06-18T11:01:08.987Z,48.70
2017-06-18T11:03:36.441Z,48.60
2017-06-18T11:06:03.901Z,47.80
2017-06-18T11:09:09.322Z,48.90
2017-06-18T11:11:36.785Z,48.80
2017-06-18T11:14:04.246Z,49.00
2017-06-18T11:16:31.698Z,49.10
2017-06-18T11:18:59.149Z,48.10
2017-06-18T11:21:26.611Z,47.80
2017-06-18T11:23:54.066Z,46.60
2017-06-18T11:26:21.530Z,46.50
2017-06-18T11:28:48.991Z,45.90
2017-06-18T11:31:16.464Z,47.80
2017-06-18T11:33:43.913Z,46.50
2017-06-18T11:36:11.373Z,44.30
2017-06-18T11:38:38.830Z,44.20
2017-06-18T11:41:06.291Z,44.30
2017-06-18T11:43:33.733Z,46.00
2017-06-18T11:46:01.205Z,43.80
2017-06-18T11:48:28.659Z,43.90
2017-06-18T11:50:56.103Z,42.60
2017-06-18T11:53:23.565Z,41.90
2017-06-18T11:55:51.022Z,42.60
2017-06-18T11:58:18.489Z,39.90
2017-06-18T12:00:45.937Z,42.60
2017-06-18T12:03:13.409Z,42.60
2017-06-18T12:05:40.876Z,41.90
2017-06-18T12:08:08.343Z,40.60
2017-06-18T12:10:36.562Z,38.50
2017-06-18T12:13:04.042Z,38.40
2017-06-18T12:15:31.506Z,36.40
2017-06-18T12:17:58.977Z,39.50
2017-06-18T12:20:26.437Z,40.20
2017-06-18T12:22:53.921Z,40.80
2017-06-18T12:25:21.366Z,40.00
2017-06-18T12:27:49.587Z,42.20
2017-06-18T12:30:17.055Z,42.10
2017-06-18T12:32:44.510Z,43.50
2017-06-18T12:35:11.965Z,43.00
2017-06-18T12:37:39.418Z,43.10
2017-06-18T12:40:06.881Z,42.40
2017-06-18T12:42:34.330Z,41.70
2017-06-18T12:45:01.801Z,42.90
2017-06-18T12:47:29.254Z,43.60
2017-06-18T12:49:56.717Z,42.40
2017-06-18T12:52:24.161Z,44.00
2017-06-18T12:54:51.645Z,46.10
2017-06-18T12:57:19.089Z,45.70
2017-06-18T12:59:46.545Z,43.60
2017-06-18T13:02:14.005Z,43.30
2017-06-18T13:04:41.457Z,42.70
2017-06-18T13:07:08.919Z,41.80
2017-06-18T13:09:36.368Z,41.80
2017-06-18T13:12:03.825Z,41.10
2017-06-18T13:14:31.270Z,39.80
2017-06-18T13:16:58.746Z,40.60
2017-06-18T13:19:26.213Z,42.60
2017-06-18T13:21:53.678Z,41.60
2017-06-18T13:24:21.122Z,39.20
2017-06-18T13:26:48.589Z,38.40
2017-06-18T13:29:16.040Z,38.60
2017-06-18T13:31:43.490Z,38.80
2017-06-18T13:34:10.962Z,40.70
2017-06-18T13:36:38.418Z,39.50
2017-06-18T13:39:05.895Z,37.40
2017-06-18T13:41:34.121Z,39.60
2017-06-18T13:44:01.590Z,39.50
2017-06-18T13:46:29.050Z,41.20
2017-06-18T13:48:56.509Z,42.50
2017-06-18T13:51:23.961Z,43.40
2017-06-18T13:53:51.429Z,40.80
2017-06-18T13:56:18.877Z,42.20
2017-06-18T13:58:46.341Z,42.40
2017-06-18T14:01:13.802Z,41.70
2017-06-18T14:03:41.263Z,42.30
2017-06-18T14:06:08.718Z,40.80
2017-06-18T14:08:36.181Z,40.80
2017-06-18T14:11:03.627Z,40.50
2017-06-18T14:13:31.073Z,44.20
2017-06-18T14:15:58.550Z,42.80
2017-06-18T14:18:26.001Z,43.60
2017-06-18T14:20:53.463Z,42.70
2017-06-18T14:23:20.926Z,42.40
2017-06-18T14:25:48.388Z,41.10
2017-06-18T14:28:16.613Z,40.70
2017-06-18T14:30:44.094Z,40.70
2017-06-18T14:33:31.540Z,40.90
2017-06-18T14:35:59.009Z,41.10
2017-06-18T14:38:27.230Z,40.40
2017-06-18T14:40:54.685Z,40.40
2017-06-18T14:43:22.141Z,39.20
2017-06-18T14:45:49.617Z,41.00
2017-06-18T14:48:17.074Z,40.80
2017-06-18T14:50:44.535Z,41.20
2017-06-18T14:53:12.009Z,42.10
2017-06-18T14:55:39.458Z,43.40
2017-06-18T14:58:06.917Z,44.10
2017-06-18T15:00:40.048Z,43.80
2017-06-18T15:03:07.516Z,42.00
2017-06-18T15:05:34.957Z,41.40
2017-06-18T15:08:02.417Z,41.40
2017-06-18T15:10:29.876Z,41.00
2017-06-18T15:12:57.341Z,40.00
2017-06-18T15:15:24.790Z,40.90
2017-06-18T15:17:52.263Z,41.50
2017-06-18T15:20:19.727Z,40.40
2017-06-18T15:22:47.184Z,41.30
2017-06-18T15:25:14.641Z,41.80
2017-06-18T15:27:42.098Z,42.10
2017-06-18T15:30:09.565Z,42.70
2017-06-18T15:32:37.010Z,41.50
2017-06-18T15:35:04.482Z,41.40
2017-06-18T15:37:31.930Z,43.20
2017-06-18T15:39:59.405Z,44.80
2017-06-18T15:42:26.840Z,43.30
2017-06-18T15:44:54.303Z,41.70
2017-06-18T15:47:21.758Z,41.30
2017-06-18T15:49:49.225Z,41.40
2017-06-18T15:52:16.673Z,40.90
2017-06-18T15:54:44.154Z,40.90
2017-06-18T15:57:11.611Z,41.60
2017-06-18T15:59:46.386Z,42.40
2017-06-18T16:02:13.836Z,43.60
2017-06-18T16:04:42.049Z,44.10
2017-06-18T16:07:09.511Z,44.10
2017-06-18T16:09:36.963Z,44.10
2017-06-18T16:12:04.426Z,43.20
2017-06-18T16:14:31.866Z,42.50
2017-06-18T16:16:59.329Z,42.20
2017-06-18T16:19:26.792Z,41.90
2017-06-18T16:21:54.253Z,41.40
2017-06-18T16:27:28.509Z,41.60
2017-06-18T16:29:55.974Z,43.00
2017-06-18T16:32:23.434Z,45.30
2017-06-18T16:34:50.885Z,44.80
2017-06-18T16:37:18.355Z,45.60
2017-06-18T16:39:46.588Z,46.20
2017-06-18T16:42:14.033Z,46.20
2017-06-18T16:44:41.497Z,46.40
2017-06-18T16:47:08.953Z,46.30
2017-06-18T16:49:36.414Z,46.10
2017-06-18T16:52:03.862Z,46.40
2017-06-18T16:54:31.327Z,46.00
2017-06-18T17:02:48.629Z,49.30
2017-06-18T17:05:16.866Z,47.70
2017-06-18T17:07:44.331Z,47.30
2017-06-18T17:10:35.175Z,48.20
2017-06-18T17:13:03.389Z,49.20
2017-06-18T17:15:30.849Z,49.10
2017-06-18T17:17:58.303Z,49.40
2017-06-18T17:20:25.760Z,49.40
2017-06-18T17:22:53.226Z,50.10
2017-06-18T17:25:20.705Z,50.50
2017-06-18T17:27:48.385Z,50.40
2017-06-18T17:30:15.856Z,50.00
2017-06-18T17:32:44.073Z,51.30
2017-06-18T17:35:11.538Z,50.90
2017-06-18T17:37:38.999Z,52.10
2017-06-18T17:40:06.785Z,51.50
2017-06-18T17:42:53.377Z,50.60
2017-06-18T17:45:20.844Z,50.60
2017-06-18T17:47:48.289Z,51.80
2017-06-18T17:50:15.749Z,50.60
2017-06-18T17:52:43.215Z,51.10
2017-06-18T17:55:10.661Z,51.30
2017-06-18T17:57:38.125Z,53.10
2017-06-18T18:00:05.573Z,52.20
2017-06-18T18:02:33.045Z,52.90
2017-06-18T18:08:07.381Z,52.10
2017-06-18T18:10:34.826Z,53.30
2017-06-18T18:13:02.285Z,53.50
2017-06-18T18:15:29.737Z,54.00
2017-06-18T18:17:57.197Z,54.10
2017-06-18T18:20:24.645Z,53.20
2017-06-18T18:22:52.105Z,52.40
2017-06-18T18:25:19.553Z,53.20
2017-06-18T18:27:47.025Z,53.80
2017-06-18T18:30:14.481Z,53.70
2017-06-18T18:32:41.941Z,53.80
2017-06-18T18:35:09.401Z,53.80
2017-06-18T18:37:36.873Z,54.20
2017-06-18T18:40:04.339Z,54.40
2017-06-18T18:42:31.781Z,54.40
2017-06-18T18:44:59.241Z,54.20
2017-06-18T18:47:26.693Z,54.60
2017-06-18T18:49:54.185Z,55.70
2017-06-18T18:52:21.626Z,55.60
2017-06-18T18:54:49.861Z,56.30
2017-06-18T18:57:17.309Z,56.30
2017-06-18T18:59:44.777Z,57.20
2017-06-18T19:02:12.229Z,57.30
2017-06-18T19:04:39.698Z,58.30
2017-06-18T19:07:07.173Z,59.00
2017-06-18T19:09:34.632Z,59.80
2017-06-18T19:12:02.077Z,60.00
2017-06-18T19:14:29.541Z,61.20
2017-06-18T19:16:56.990Z,61.80
2017-06-18T19:19:24.442Z,62.90
2017-06-18T19:22:05.219Z,63.40
2017-06-18T19:24:32.913Z,64.20
2017-06-18T19:27:01.142Z,65.70
2017-06-18T19:29:28.597Z,65.60
2017-06-18T19:31:56.061Z,66.50
2017-06-18T19:34:23.522Z,67.60
2017-06-18T19:36:50.983Z,67.80
2017-06-18T19:39:18.425Z,68.10
2017-06-18T19:41:45.891Z,68.00
2017-06-18T19:44:13.342Z,68.60
2017-06-18T19:46:40.806Z,69.10
2017-06-18T19:49:08.262Z,69.30
2017-06-18T19:51:35.722Z,69.30
2017-06-18T19:54:03.198Z,69.00
2017-06-18T19:56:30.711Z,69.70
2017-06-18T19:58:58.166Z,70.50
2017-06-18T20:01:25.618Z,71.20
2017-06-18T20:03:53.081Z,72.30
2017-06-18T20:06:20.532Z,74.00
2017-06-18T20:08:47.994Z,74.40
2017-06-18T20:11:15.446Z,75.00
2017-06-18T20:13:42.909Z,75.10
2017-06-18T20:16:10.374Z,75.40
2017-06-18T20:18:37.821Z,75.70
2017-06-18T20:21:05.293Z,75.90
2017-06-18T20:23:32.742Z,76.80
2017-06-18T20:26:00.202Z,77.40
2017-06-18T20:28:27.649Z,77.70
2017-06-18T20:30:55.110Z,79.00
2017-06-18T20:33:22.567Z,79.10
2017-06-18T20:35:50.026Z,79.20
2017-06-18T20:38:17.491Z,78.80
2017-06-18T20:40:44.963Z,79.60
2017-06-18T20:43:12.417Z,79.50
2017-06-18T20:45:39.873Z,79.70
2017-06-18T20:48:07.329Z,79.20
2017-06-18T20:50:34.786Z,79.00
2017-06-18T20:53:02.249Z,79.80
2017-06-18T20:55:29.705Z,79.80
2017-06-18T20:57:57.177Z,80.40
2017-06-18T21:00:24.642Z,81.00
2017-06-18T21:02:52.094Z,80.30
2017-06-18T21:05:19.542Z,80.70
2017-06-18T21:07:47.009Z,80.60
2017-06-18T21:10:14.461Z,81.20
2017-06-18T21:12:41.929Z,81.40
2017-06-18T21:15:09.385Z,81.20
2017-06-18T21:17:36.858Z,81.50
2017-06-18T21:20:05.069Z,80.70
2017-06-18T21:22:32.530Z,80.60
2017-06-18T21:24:59.995Z,79.60
2017-06-18T21:27:27.449Z,80.50
2017-06-18T21:29:54.905Z,80.70
2017-06-18T21:32:22.389Z,81.10
2017-06-18T21:34:49.851Z,81.90
2017-06-18T21:37:17.306Z,81.20
2017-06-18T21:39:44.761Z,80.70
2017-06-18T21:42:12.210Z,80.40
2017-06-18T21:44:39.681Z,80.80
2017-06-18T21:47:07.134Z,81.40
2017-06-18T21:49:34.589Z,82.90
2017-06-18T21:52:02.042Z,83.60
2017-06-18T21:54:29.486Z,83.60
2017-06-18T21:56:56.954Z,83.80
2017-06-18T21:59:24.407Z,83.60
2017-06-18T22:01:51.882Z,83.70
2017-06-18T22:04:19.324Z,83.90
2017-06-18T22:06:46.781Z,83.70
2017-06-18T22:09:14.226Z,84.30
2017-06-18T22:11:41.701Z,84.70
2017-06-18T22:14:09.153Z,83.10
2017-06-18T22:16:36.629Z,82.80
2017-06-18T22:19:04.074Z,83.40
2017-06-18T22:21:31.530Z,84.40
2017-06-18T22:23:58.981Z,84.50
2017-06-18T22:26:26.465Z,83.70
2017-06-18T22:28:53.909Z,82.80
2017-06-18T22:31:21.364Z,82.90
2017-06-18T22:33:48.825Z,83.00
2017-06-18T22:36:16.292Z,83.90
2017-06-18T22:38:44.526Z,85.60
2017-06-18T22:41:11.973Z,85.60
2017-06-18T22:43:39.445Z,85.30
2017-06-18T22:46:06.911Z,84.00
2017-06-18T22:48:34.383Z,83.70
2017-06-18T22:51:01.831Z,84.20
2017-06-18T22:53:29.286Z,84.80
2017-06-18T22:55:56.738Z,84.50
2017-06-18T22:58:24.198Z,84.20
2017-06-18T23:00:51.649Z,84.30
2017-06-18T23:03:19.137Z,85.40
2017-06-18T23:05:47.353Z,86.60
2017-06-18T23:08:14.803Z,86.00
2017-06-18T23:10:42.270Z,85.70
2017-06-18T23:13:09.737Z,85.20
2017-06-18T23:15:37.209Z,84.70
2017-06-18T23:18:04.665Z,84.70
2017-06-18T23:20:32.137Z,85.30
2017-06-18T23:22:59.590Z,85.40
2017-06-18T23:25:27.054Z,86.90
2017-06-18T23:27:54.501Z,86.40
2017-06-18T23:30:21.973Z,86.10
2017-06-18T23:32:49.422Z,86.50
2017-06-18T23:35:16.887Z,86.20
2017-06-18T23:37:44.329Z,87.30
2017-06-18T23:40:11.786Z,87.20
2017-06-18T23:42:39.253Z,86.40
2017-06-18T23:45:06.705Z,86.80
2017-06-18T23:47:34.169Z,86.70
2017-06-18T23:50:01.631Z,87.00
2017-06-18T23:52:29.102Z,87.20
2017-06-18T23:54:56.568Z,86.90
2017-06-18T23:57:24.790Z,87.60
2017-06-18T23:59:52.245Z,87.50
